sensor_id;sensor_type;location;lat;lon;timestamp;P1;durP1;ratioP1;P2;durP2;ratioP2
23236;SDS011;11787;52.018;8.570;2023-04-16T00:01:31;47.63;;;35.58;;
23236;SDS011;11787;52.018;8.570;2023-04-16T00:03:57;40.88;;;31.73;;
23236;SDS011;11787;52.018;8.570;2023-04-16T00:06:23;45.70;;;34.80;;
23236;SDS011;11787;52.018;8.570;2023-04-16T00:08:48;49.60;;;36.25;;
23236;SDS011;11787;52.018;8.570;2023-04-16T00:11:15;45.30;;;35.35;;
23236;SDS011;11787;52.018;8.570;2023-04-16T00:13:41;44.70;;;34.28;;
23236;SDS011;11787;52.018;8.570;2023-04-16T00:16:07;44.30;;;35.25;;
23236;SDS011;11787;52.018;8.570;2023-04-16T00:18:32;45.58;;;34.50;;
23236;SDS011;11787;52.018;8.570;2023-04-16T00:20:58;45.25;;;34.45;;
23236;SDS011;11787;52.018;8.570;2023-04-16T00:23:24;44.50;;;33.72;;
23236;SDS011;11787;52.018;8.570;2023-04-16T00:25:50;41.33;;;33.65;;
23236;SDS011;11787;52.018;8.570;2023-04-16T00:28:16;43.60;;;34.15;;
23236;SDS011;11787;52.018;8.570;2023-04-16T00:30:41;44.00;;;34.30;;
23236;SDS011;11787;52.018;8.570;2023-04-16T00:33:07;48.13;;;35.10;;
23236;SDS011;11787;52.018;8.570;2023-04-16T00:35:33;43.78;;;33.92;;
23236;SDS011;11787;52.018;8.570;2023-04-16T00:37:58;38.95;;;31.27;;
23236;SDS011;11787;52.018;8.570;2023-04-16T00:40:27;46.08;;;35.72;;
23236;SDS011;11787;52.018;8.570;2023-04-16T00:42:53;46.92;;;35.58;;
23236;SDS011;11787;52.018;8.570;2023-04-16T00:45:19;46.40;;;35.65;;
23236;SDS011;11787;52.018;8.570;2023-04-16T00:47:44;45.10;;;35.58;;
23236;SDS011;11787;52.018;8.570;2023-04-16T00:50:10;44.33;;;34.53;;
23236;SDS011;11787;52.018;8.570;2023-04-16T00:52:36;43.80;;;35.20;;
23236;SDS011;11787;52.018;8.570;2023-04-16T00:55:03;41.83;;;33.75;;
23236;SDS011;11787;52.018;8.570;2023-04-16T00:57:30;43.88;;;34.97;;
23236;SDS011;11787;52.018;8.570;2023-04-16T00:59:56;40.47;;;33.88;;
23236;SDS011;11787;52.018;8.570;2023-04-16T01:02:22;47.90;;;35.05;;
23236;SDS011;11787;52.018;8.570;2023-04-16T01:04:48;48.33;;;35.42;;
23236;SDS011;11787;52.018;8.570;2023-04-16T01:07:14;49.50;;;38.10;;
23236;SDS011;11787;52.018;8.570;2023-04-16T01:09:40;45.67;;;34.30;;
23236;SDS011;11787;52.018;8.570;2023-04-16T01:12:05;41.47;;;34.60;;
23236;SDS011;11787;52.018;8.570;2023-04-16T01:14:31;42.63;;;35.85;;
23236;SDS011;11787;52.018;8.570;2023-04-16T01:17:00;41.92;;;34.65;;
23236;SDS011;11787;52.018;8.570;2023-04-16T01:19:26;45.17;;;36.15;;
23236;SDS011;11787;52.018;8.570;2023-04-16T01:21:55;46.20;;;35.17;;
23236;SDS011;11787;52.018;8.570;2023-04-16T01:24:20;44.80;;;36.22;;
23236;SDS011;11787;52.018;8.570;2023-04-16T01:26:46;42.78;;;34.08;;
23236;SDS011;11787;52.018;8.570;2023-04-16T01:29:12;44.00;;;36.03;;
23236;SDS011;11787;52.018;8.570;2023-04-16T01:31:37;45.40;;;36.17;;
23236;SDS011;11787;52.018;8.570;2023-04-16T01:34:03;41.92;;;36.03;;
23236;SDS011;11787;52.018;8.570;2023-04-16T01:36:28;45.22;;;35.22;;
23236;SDS011;11787;52.018;8.570;2023-04-16T01:38:54;46.88;;;37.25;;
23236;SDS011;11787;52.018;8.570;2023-04-16T01:41:20;45.20;;;36.67;;
23236;SDS011;11787;52.018;8.570;2023-04-16T01:43:45;44.40;;;35.03;;
23236;SDS011;11787;52.018;8.570;2023-04-16T01:46:17;45.28;;;37.83;;
23236;SDS011;11787;52.018;8.570;2023-04-16T01:48:44;45.60;;;36.85;;
23236;SDS011;11787;52.018;8.570;2023-04-16T01:51:11;39.10;;;34.50;;
23236;SDS011;11787;52.018;8.570;2023-04-16T01:53:36;43.00;;;36.13;;
23236;SDS011;11787;52.018;8.570;2023-04-16T01:56:02;38.85;;;34.75;;
23236;SDS011;11787;52.018;8.570;2023-04-16T01:58:28;39.92;;;34.42;;
23236;SDS011;11787;52.018;8.570;2023-04-16T02:00:54;39.95;;;33.90;;
23236;SDS011;11787;52.018;8.570;2023-04-16T02:03:20;40.70;;;33.38;;
23236;SDS011;11787;52.018;8.570;2023-04-16T02:05:48;41.08;;;31.98;;
23236;SDS011;11787;52.018;8.570;2023-04-16T02:08:14;43.78;;;33.22;;
23236;SDS011;11787;52.018;8.570;2023-04-16T02:10:40;38.22;;;32.25;;
23236;SDS011;11787;52.018;8.570;2023-04-16T02:13:05;41.10;;;34.58;;
23236;SDS011;11787;52.018;8.570;2023-04-16T02:15:31;37.90;;;31.65;;
23236;SDS011;11787;52.018;8.570;2023-04-16T02:17:56;37.25;;;30.63;;
23236;SDS011;11787;52.018;8.570;2023-04-16T02:20:22;40.17;;;31.80;;
23236;SDS011;11787;52.018;8.570;2023-04-16T02:22:48;39.13;;;31.02;;
23236;SDS011;11787;52.018;8.570;2023-04-16T02:25:13;34.97;;;31.00;;
23236;SDS011;11787;52.018;8.570;2023-04-16T02:27:39;40.38;;;33.47;;
23236;SDS011;11787;52.018;8.570;2023-04-16T02:30:05;42.65;;;32.97;;
23236;SDS011;11787;52.018;8.570;2023-04-16T02:32:31;37.78;;;32.20;;
23236;SDS011;11787;52.018;8.570;2023-04-16T02:34:56;36.15;;;32.22;;
23236;SDS011;11787;52.018;8.570;2023-04-16T02:37:22;40.67;;;31.90;;
23236;SDS011;11787;52.018;8.570;2023-04-16T02:39:49;41.10;;;32.92;;
23236;SDS011;11787;52.018;8.570;2023-04-16T02:42:15;36.85;;;31.73;;
23236;SDS011;11787;52.018;8.570;2023-04-16T02:44:41;39.72;;;33.63;;
23236;SDS011;11787;52.018;8.570;2023-04-16T02:47:06;35.10;;;31.27;;
23236;SDS011;11787;52.018;8.570;2023-04-16T02:49:32;37.20;;;31.70;;
23236;SDS011;11787;52.018;8.570;2023-04-16T02:51:57;36.88;;;31.98;;
23236;SDS011;11787;52.018;8.570;2023-04-16T02:54:23;37.97;;;32.42;;
23236;SDS011;11787;52.018;8.570;2023-04-16T02:56:49;36.55;;;31.27;;
23236;SDS011;11787;52.018;8.570;2023-04-16T02:59:14;35.47;;;31.52;;
23236;SDS011;11787;52.018;8.570;2023-04-16T03:01:40;35.30;;;31.50;;
23236;SDS011;11787;52.018;8.570;2023-04-16T03:04:05;36.72;;;31.92;;
23236;SDS011;11787;52.018;8.570;2023-04-16T03:06:31;40.72;;;32.05;;
23236;SDS011;11787;52.018;8.570;2023-04-16T03:08:56;35.17;;;31.38;;
23236;SDS011;11787;52.018;8.570;2023-04-16T03:11:22;39.63;;;31.00;;
23236;SDS011;11787;52.018;8.570;2023-04-16T03:13:47;42.00;;;31.23;;
23236;SDS011;11787;52.018;8.570;2023-04-16T03:16:13;38.67;;;32.25;;
23236;SDS011;11787;52.018;8.570;2023-04-16T03:18:39;36.00;;;32.00;;
23236;SDS011;11787;52.018;8.570;2023-04-16T03:21:05;37.90;;;31.02;;
23236;SDS011;11787;52.018;8.570;2023-04-16T03:23:30;36.35;;;31.58;;
23236;SDS011;11787;52.018;8.570;2023-04-16T03:25:56;39.60;;;32.00;;
23236;SDS011;11787;52.018;8.570;2023-04-16T03:28:22;37.20;;;32.50;;
23236;SDS011;11787;52.018;8.570;2023-04-16T03:30:51;39.35;;;30.58;;
23236;SDS011;11787;52.018;8.570;2023-04-16T03:33:18;35.60;;;31.65;;
23236;SDS011;11787;52.018;8.570;2023-04-16T03:35:44;36.58;;;31.33;;
23236;SDS011;11787;52.018;8.570;2023-04-16T03:38:10;36.92;;;31.45;;
23236;SDS011;11787;52.018;8.570;2023-04-16T03:40:36;39.45;;;31.88;;
23236;SDS011;11787;52.018;8.570;2023-04-16T03:43:02;34.40;;;30.33;;
23236;SDS011;11787;52.018;8.570;2023-04-16T03:45:28;39.75;;;32.95;;
23236;SDS011;11787;52.018;8.570;2023-04-16T03:47:53;40.03;;;32.78;;
23236;SDS011;11787;52.018;8.570;2023-04-16T03:50:19;39.72;;;34.42;;
23236;SDS011;11787;52.018;8.570;2023-04-16T03:52:45;41.30;;;34.55;;
23236;SDS011;11787;52.018;8.570;2023-04-16T03:55:13;39.55;;;34.25;;
23236;SDS011;11787;52.018;8.570;2023-04-16T03:57:39;45.83;;;35.45;;
23236;SDS011;11787;52.018;8.570;2023-04-16T04:00:05;42.08;;;35.33;;
23236;SDS011;11787;52.018;8.570;2023-04-16T04:02:31;40.53;;;34.78;;
23236;SDS011;11787;52.018;8.570;2023-04-16T04:04:57;41.47;;;34.83;;
23236;SDS011;11787;52.018;8.570;2023-04-16T04:07:22;44.53;;;35.65;;
23236;SDS011;11787;52.018;8.570;2023-04-16T04:09:48;40.65;;;34.08;;
23236;SDS011;11787;52.018;8.570;2023-04-16T04:12:14;43.30;;;34.40;;
23236;SDS011;11787;52.018;8.570;2023-04-16T04:14:39;41.67;;;33.47;;
23236;SDS011;11787;52.018;8.570;2023-04-16T04:17:05;38.78;;;34.25;;
23236;SDS011;11787;52.018;8.570;2023-04-16T04:19:32;42.80;;;34.83;;
23236;SDS011;11787;52.018;8.570;2023-04-16T04:21:57;40.08;;;34.20;;
23236;SDS011;11787;52.018;8.570;2023-04-16T04:24:23;37.30;;;32.88;;
23236;SDS011;11787;52.018;8.570;2023-04-16T04:26:49;38.72;;;31.17;;
23236;SDS011;11787;52.018;8.570;2023-04-16T04:29:14;38.97;;;33.00;;
23236;SDS011;11787;52.018;8.570;2023-04-16T04:31:40;42.22;;;32.60;;
23236;SDS011;11787;52.018;8.570;2023-04-16T04:34:06;38.45;;;32.13;;
23236;SDS011;11787;52.018;8.570;2023-04-16T04:36:31;38.70;;;32.25;;
23236;SDS011;11787;52.018;8.570;2023-04-16T04:38:57;39.40;;;31.98;;
23236;SDS011;11787;52.018;8.570;2023-04-16T04:41:23;37.13;;;32.20;;
23236;SDS011;11787;52.018;8.570;2023-04-16T04:43:50;37.83;;;30.63;;
23236;SDS011;11787;52.018;8.570;2023-04-16T04:46:16;38.95;;;32.28;;
23236;SDS011;11787;52.018;8.570;2023-04-16T04:48:42;42.40;;;35.15;;
23236;SDS011;11787;52.018;8.570;2023-04-16T04:51:07;44.05;;;34.10;;
23236;SDS011;11787;52.018;8.570;2023-04-16T04:53:33;36.47;;;31.63;;
23236;SDS011;11787;52.018;8.570;2023-04-16T04:55:58;42.78;;;34.10;;
23236;SDS011;11787;52.018;8.570;2023-04-16T04:58:24;43.03;;;33.85;;
23236;SDS011;11787;52.018;8.570;2023-04-16T05:00:50;39.90;;;33.92;;
23236;SDS011;11787;52.018;8.570;2023-04-16T05:03:18;40.15;;;32.97;;
23236;SDS011;11787;52.018;8.570;2023-04-16T05:05:45;39.10;;;32.83;;
23236;SDS011;11787;52.018;8.570;2023-04-16T05:08:11;42.47;;;34.92;;
23236;SDS011;11787;52.018;8.570;2023-04-16T05:10:36;41.38;;;33.72;;
23236;SDS011;11787;52.018;8.570;2023-04-16T05:13:02;41.90;;;35.95;;
23236;SDS011;11787;52.018;8.570;2023-04-16T05:15:27;40.70;;;34.28;;
23236;SDS011;11787;52.018;8.570;2023-04-16T05:17:54;38.75;;;33.38;;
23236;SDS011;11787;52.018;8.570;2023-04-16T05:20:22;41.05;;;33.38;;
23236;SDS011;11787;52.018;8.570;2023-04-16T05:22:48;45.38;;;34.08;;
23236;SDS011;11787;52.018;8.570;2023-04-16T05:25:15;44.25;;;35.90;;
23236;SDS011;11787;52.018;8.570;2023-04-16T05:27:41;43.95;;;35.63;;
23236;SDS011;11787;52.018;8.570;2023-04-16T05:30:07;43.63;;;35.35;;
23236;SDS011;11787;52.018;8.570;2023-04-16T05:32:33;44.28;;;35.88;;
23236;SDS011;11787;52.018;8.570;2023-04-16T05:34:59;40.47;;;35.08;;
23236;SDS011;11787;52.018;8.570;2023-04-16T05:37:25;45.83;;;36.53;;
23236;SDS011;11787;52.018;8.570;2023-04-16T05:39:50;46.70;;;36.10;;
23236;SDS011;11787;52.018;8.570;2023-04-16T05:42:16;45.60;;;36.05;;
23236;SDS011;11787;52.018;8.570;2023-04-16T05:44:42;42.67;;;36.65;;
23236;SDS011;11787;52.018;8.570;2023-04-16T05:47:07;44.33;;;36.45;;
23236;SDS011;11787;52.018;8.570;2023-04-16T05:49:33;50.03;;;37.40;;
23236;SDS011;11787;52.018;8.570;2023-04-16T05:52:01;45.17;;;36.10;;
23236;SDS011;11787;52.018;8.570;2023-04-16T05:54:27;42.35;;;34.03;;
23236;SDS011;11787;52.018;8.570;2023-04-16T05:56:53;44.97;;;36.05;;
23236;SDS011;11787;52.018;8.570;2023-04-16T05:59:18;44.58;;;37.45;;
23236;SDS011;11787;52.018;8.570;2023-04-16T06:01:44;46.42;;;35.67;;
23236;SDS011;11787;52.018;8.570;2023-04-16T06:04:10;42.92;;;35.33;;
23236;SDS011;11787;52.018;8.570;2023-04-16T06:06:35;43.63;;;34.88;;
23236;SDS011;11787;52.018;8.570;2023-04-16T06:09:01;41.38;;;33.35;;
23236;SDS011;11787;52.018;8.570;2023-04-16T06:11:28;43.85;;;33.80;;
23236;SDS011;11787;52.018;8.570;2023-04-16T06:13:54;45.65;;;34.65;;
23236;SDS011;11787;52.018;8.570;2023-04-16T06:16:20;40.05;;;34.72;;
23236;SDS011;11787;52.018;8.570;2023-04-16T06:18:45;41.45;;;32.60;;
23236;SDS011;11787;52.018;8.570;2023-04-16T06:21:11;41.30;;;32.63;;
23236;SDS011;11787;52.018;8.570;2023-04-16T06:23:37;43.08;;;35.28;;
23236;SDS011;11787;52.018;8.570;2023-04-16T06:26:03;43.67;;;33.70;;
23236;SDS011;11787;52.018;8.570;2023-04-16T06:28:29;39.47;;;32.72;;
23236;SDS011;11787;52.018;8.570;2023-04-16T06:30:55;41.13;;;33.95;;
23236;SDS011;11787;52.018;8.570;2023-04-16T06:33:21;38.53;;;31.45;;
23236;SDS011;11787;52.018;8.570;2023-04-16T06:35:47;39.13;;;31.63;;
23236;SDS011;11787;52.018;8.570;2023-04-16T06:38:13;38.70;;;31.75;;
23236;SDS011;11787;52.018;8.570;2023-04-16T06:40:38;39.33;;;31.65;;
23236;SDS011;11787;52.018;8.570;2023-04-16T06:43:04;38.00;;;29.83;;
23236;SDS011;11787;52.018;8.570;2023-04-16T06:45:30;37.80;;;30.95;;
23236;SDS011;11787;52.018;8.570;2023-04-16T06:47:56;36.30;;;30.60;;
23236;SDS011;11787;52.018;8.570;2023-04-16T06:50:23;36.22;;;30.17;;
23236;SDS011;11787;52.018;8.570;2023-04-16T06:52:50;36.90;;;31.48;;
23236;SDS011;11787;52.018;8.570;2023-04-16T06:55:16;38.90;;;31.30;;
23236;SDS011;11787;52.018;8.570;2023-04-16T06:57:42;38.30;;;31.05;;
23236;SDS011;11787;52.018;8.570;2023-04-16T07:00:07;36.63;;;30.58;;
23236;SDS011;11787;52.018;8.570;2023-04-16T07:02:33;37.53;;;29.23;;
23236;SDS011;11787;52.018;8.570;2023-04-16T07:04:59;34.10;;;27.00;;
23236;SDS011;11787;52.018;8.570;2023-04-16T07:07:24;32.85;;;27.30;;
23236;SDS011;11787;52.018;8.570;2023-04-16T07:09:51;37.33;;;27.38;;
23236;SDS011;11787;52.018;8.570;2023-04-16T07:12:16;34.35;;;26.10;;
23236;SDS011;11787;52.018;8.570;2023-04-16T07:14:42;31.98;;;25.92;;
23236;SDS011;11787;52.018;8.570;2023-04-16T07:17:07;32.78;;;27.38;;
23236;SDS011;11787;52.018;8.570;2023-04-16T07:19:33;34.17;;;27.25;;
23236;SDS011;11787;52.018;8.570;2023-04-16T07:21:59;31.00;;;26.42;;
23236;SDS011;11787;52.018;8.570;2023-04-16T07:24:25;31.92;;;25.83;;
23236;SDS011;11787;52.018;8.570;2023-04-16T07:26:50;33.25;;;27.15;;
23236;SDS011;11787;52.018;8.570;2023-04-16T07:29:16;32.05;;;27.45;;
23236;SDS011;11787;52.018;8.570;2023-04-16T07:31:42;31.17;;;27.02;;
23236;SDS011;11787;52.018;8.570;2023-04-16T07:34:07;29.10;;;25.77;;
23236;SDS011;11787;52.018;8.570;2023-04-16T07:36:33;32.22;;;26.65;;
23236;SDS011;11787;52.018;8.570;2023-04-16T07:38:58;32.92;;;27.90;;
23236;SDS011;11787;52.018;8.570;2023-04-16T07:41:24;33.08;;;27.88;;
23236;SDS011;11787;52.018;8.570;2023-04-16T07:43:50;33.83;;;26.05;;
23236;SDS011;11787;52.018;8.570;2023-04-16T07:46:15;33.85;;;27.23;;
23236;SDS011;11787;52.018;8.570;2023-04-16T07:48:41;35.25;;;27.77;;
23236;SDS011;11787;52.018;8.570;2023-04-16T07:51:07;34.33;;;27.42;;
23236;SDS011;11787;52.018;8.570;2023-04-16T07:53:32;35.63;;;27.75;;
23236;SDS011;11787;52.018;8.570;2023-04-16T07:55:58;32.50;;;27.10;;
23236;SDS011;11787;52.018;8.570;2023-04-16T07:58:23;36.33;;;28.45;;
23236;SDS011;11787;52.018;8.570;2023-04-16T08:00:49;32.03;;;26.88;;
23236;SDS011;11787;52.018;8.570;2023-04-16T08:03:15;29.85;;;24.52;;
23236;SDS011;11787;52.018;8.570;2023-04-16T08:05:41;32.75;;;26.10;;
23236;SDS011;11787;52.018;8.570;2023-04-16T08:08:07;30.85;;;26.20;;
23236;SDS011;11787;52.018;8.570;2023-04-16T08:10:33;30.35;;;26.58;;
23236;SDS011;11787;52.018;8.570;2023-04-16T08:12:59;29.65;;;24.92;;
23236;SDS011;11787;52.018;8.570;2023-04-16T08:15:25;30.13;;;26.27;;
23236;SDS011;11787;52.018;8.570;2023-04-16T08:17:51;29.80;;;25.27;;
23236;SDS011;11787;52.018;8.570;2023-04-16T08:20:17;33.03;;;25.75;;
23236;SDS011;11787;52.018;8.570;2023-04-16T08:22:43;31.80;;;24.70;;
23236;SDS011;11787;52.018;8.570;2023-04-16T08:25:09;30.02;;;25.25;;
23236;SDS011;11787;52.018;8.570;2023-04-16T08:27:35;35.13;;;26.52;;
23236;SDS011;11787;52.018;8.570;2023-04-16T08:30:01;31.38;;;25.45;;
23236;SDS011;11787;52.018;8.570;2023-04-16T08:32:27;31.38;;;26.58;;
23236;SDS011;11787;52.018;8.570;2023-04-16T08:34:53;32.92;;;26.23;;
23236;SDS011;11787;52.018;8.570;2023-04-16T08:37:18;29.23;;;25.38;;
23236;SDS011;11787;52.018;8.570;2023-04-16T08:39:44;30.63;;;26.27;;
23236;SDS011;11787;52.018;8.570;2023-04-16T08:42:12;32.50;;;24.65;;
23236;SDS011;11787;52.018;8.570;2023-04-16T08:44:47;30.02;;;25.38;;
23236;SDS011;11787;52.018;8.570;2023-04-16T08:47:14;29.40;;;25.20;;
23236;SDS011;11787;52.018;8.570;2023-04-16T08:49:43;30.70;;;24.30;;
23236;SDS011;11787;52.018;8.570;2023-04-16T08:52:13;28.92;;;25.35;;
23236;SDS011;11787;52.018;8.570;2023-04-16T08:54:47;29.15;;;23.90;;
23236;SDS011;11787;52.018;8.570;2023-04-16T08:57:20;30.98;;;25.17;;
23236;SDS011;11787;52.018;8.570;2023-04-16T08:59:47;31.80;;;24.70;;
23236;SDS011;11787;52.018;8.570;2023-04-16T09:02:15;28.30;;;24.77;;
23236;SDS011;11787;52.018;8.570;2023-04-16T09:04:41;30.88;;;26.55;;
23236;SDS011;11787;52.018;8.570;2023-04-16T09:07:07;29.55;;;24.65;;
23236;SDS011;11787;52.018;8.570;2023-04-16T09:09:33;28.65;;;25.00;;
23236;SDS011;11787;52.018;8.570;2023-04-16T09:11:59;28.80;;;24.73;;
23236;SDS011;11787;52.018;8.570;2023-04-16T09:14:25;30.17;;;26.88;;
23236;SDS011;11787;52.018;8.570;2023-04-16T09:16:52;30.92;;;26.23;;
23236;SDS011;11787;52.018;8.570;2023-04-16T09:19:19;28.60;;;25.40;;
23236;SDS011;11787;52.018;8.570;2023-04-16T09:21:45;28.48;;;24.52;;
23236;SDS011;11787;52.018;8.570;2023-04-16T09:24:12;28.10;;;24.73;;
23236;SDS011;11787;52.018;8.570;2023-04-16T09:26:37;29.77;;;25.23;;
23236;SDS011;11787;52.018;8.570;2023-04-16T09:29:05;30.10;;;24.20;;
23236;SDS011;11787;52.018;8.570;2023-04-16T09:31:31;27.67;;;24.42;;
23236;SDS011;11787;52.018;8.570;2023-04-16T09:34:06;31.13;;;25.85;;
23236;SDS011;11787;52.018;8.570;2023-04-16T09:36:33;28.80;;;24.52;;
23236;SDS011;11787;52.018;8.570;2023-04-16T09:39:00;28.70;;;25.13;;
23236;SDS011;11787;52.018;8.570;2023-04-16T09:41:27;31.50;;;24.58;;
23236;SDS011;11787;52.018;8.570;2023-04-16T09:44:00;26.45;;;22.85;;
23236;SDS011;11787;52.018;8.570;2023-04-16T09:46:34;29.17;;;23.55;;
23236;SDS011;11787;52.018;8.570;2023-04-16T09:49:07;30.98;;;24.67;;
23236;SDS011;11787;52.018;8.570;2023-04-16T09:51:37;30.20;;;25.17;;
23236;SDS011;11787;52.018;8.570;2023-04-16T09:54:06;27.10;;;24.20;;
23236;SDS011;11787;52.018;8.570;2023-04-16T09:56:32;28.48;;;24.00;;
23236;SDS011;11787;52.018;8.570;2023-04-16T09:59:00;24.88;;;22.17;;
23236;SDS011;11787;52.018;8.570;2023-04-16T10:01:26;29.48;;;23.10;;
23236;SDS011;11787;52.018;8.570;2023-04-16T10:03:54;27.08;;;22.42;;
23236;SDS011;11787;52.018;8.570;2023-04-16T10:06:21;28.25;;;23.67;;
23236;SDS011;11787;52.018;8.570;2023-04-16T10:11:22;27.67;;;24.08;;
23236;SDS011;11787;52.018;8.570;2023-04-16T10:13:48;28.55;;;22.60;;
23236;SDS011;11787;52.018;8.570;2023-04-16T10:16:15;27.27;;;23.83;;
23236;SDS011;11787;52.018;8.570;2023-04-16T10:18:42;25.83;;;21.58;;
23236;SDS011;11787;52.018;8.570;2023-04-16T10:21:08;26.92;;;22.27;;
23236;SDS011;11787;52.018;8.570;2023-04-16T10:23:39;25.77;;;21.17;;
23236;SDS011;11787;52.018;8.570;2023-04-16T10:26:05;26.70;;;19.85;;
23236;SDS011;11787;52.018;8.570;2023-04-16T10:28:31;25.65;;;21.17;;
23236;SDS011;11787;52.018;8.570;2023-04-16T10:30:59;27.17;;;20.75;;
23236;SDS011;11787;52.018;8.570;2023-04-16T10:33:27;30.58;;;22.05;;
23236;SDS011;11787;52.018;8.570;2023-04-16T10:36:11;25.30;;;21.20;;
23236;SDS011;11787;52.018;8.570;2023-04-16T10:38:45;23.70;;;19.92;;
23236;SDS011;11787;52.018;8.570;2023-04-16T10:41:12;26.17;;;20.20;;
23236;SDS011;11787;52.018;8.570;2023-04-16T10:43:39;24.23;;;19.48;;
23236;SDS011;11787;52.018;8.570;2023-04-16T10:46:19;23.23;;;19.27;;
23236;SDS011;11787;52.018;8.570;2023-04-16T10:48:58;28.55;;;18.45;;
23236;SDS011;11787;52.018;8.570;2023-04-16T10:51:31;26.92;;;20.67;;
23236;SDS011;11787;52.018;8.570;2023-04-16T10:56:34;27.48;;;20.23;;
23236;SDS011;11787;52.018;8.570;2023-04-16T10:59:03;24.25;;;19.58;;
23236;SDS011;11787;52.018;8.570;2023-04-16T11:01:33;23.92;;;19.63;;
23236;SDS011;11787;52.018;8.570;2023-04-16T11:07:04;27.60;;;21.20;;
23236;SDS011;11787;52.018;8.570;2023-04-16T11:09:49;27.30;;;21.30;;
23236;SDS011;11787;52.018;8.570;2023-04-16T11:12:18;32.00;;;20.45;;
23236;SDS011;11787;52.018;8.570;2023-04-16T11:17:31;27.65;;;21.95;;
23236;SDS011;11787;52.018;8.570;2023-04-16T11:20:02;29.00;;;21.38;;
23236;SDS011;11787;52.018;8.570;2023-04-16T11:22:29;28.17;;;21.05;;
23236;SDS011;11787;52.018;8.570;2023-04-16T11:24:54;26.40;;;22.48;;
23236;SDS011;11787;52.018;8.570;2023-04-16T11:27:21;28.55;;;23.55;;
23236;SDS011;11787;52.018;8.570;2023-04-16T11:30:26;29.08;;;24.13;;
23236;SDS011;11787;52.018;8.570;2023-04-16T11:32:42;28.92;;;23.60;;
23236;SDS011;11787;52.018;8.570;2023-04-16T11:35:12;33.40;;;26.23;;
23236;SDS011;11787;52.018;8.570;2023-04-16T11:37:40;33.78;;;25.42;;
23236;SDS011;11787;52.018;8.570;2023-04-16T11:40:06;27.70;;;24.58;;
23236;SDS011;11787;52.018;8.570;2023-04-16T11:42:33;30.42;;;25.27;;
23236;SDS011;11787;52.018;8.570;2023-04-16T11:45:01;33.20;;;25.63;;
23236;SDS011;11787;52.018;8.570;2023-04-16T11:47:30;31.33;;;25.80;;
23236;SDS011;11787;52.018;8.570;2023-04-16T11:49:56;28.90;;;24.95;;
23236;SDS011;11787;52.018;8.570;2023-04-16T11:52:30;30.17;;;24.55;;
23236;SDS011;11787;52.018;8.570;2023-04-16T11:54:59;29.17;;;24.52;;
23236;SDS011;11787;52.018;8.570;2023-04-16T11:57:27;26.52;;;23.35;;
23236;SDS011;11787;52.018;8.570;2023-04-16T11:59:54;30.63;;;24.65;;
23236;SDS011;11787;52.018;8.570;2023-04-16T12:02:33;28.52;;;24.05;;
23236;SDS011;11787;52.018;8.570;2023-04-16T12:05:04;29.92;;;23.10;;
23236;SDS011;11787;52.018;8.570;2023-04-16T12:07:31;31.00;;;22.95;;
23236;SDS011;11787;52.018;8.570;2023-04-16T12:10:08;29.70;;;22.27;;
23236;SDS011;11787;52.018;8.570;2023-04-16T12:12:34;31.48;;;23.00;;
23236;SDS011;11787;52.018;8.570;2023-04-16T12:15:00;26.52;;;22.30;;
23236;SDS011;11787;52.018;8.570;2023-04-16T12:17:30;29.10;;;22.52;;
23236;SDS011;11787;52.018;8.570;2023-04-16T12:19:58;25.10;;;22.20;;
23236;SDS011;11787;52.018;8.570;2023-04-16T12:22:32;28.45;;;22.77;;
23236;SDS011;11787;52.018;8.570;2023-04-16T12:27:48;27.17;;;21.80;;
23236;SDS011;11787;52.018;8.570;2023-04-16T12:30:16;26.35;;;22.88;;
23236;SDS011;11787;52.018;8.570;2023-04-16T12:32:46;25.15;;;21.00;;
23236;SDS011;11787;52.018;8.570;2023-04-16T12:35:13;28.15;;;22.50;;
23236;SDS011;11787;52.018;8.570;2023-04-16T12:37:52;30.13;;;23.50;;
23236;SDS011;11787;52.018;8.570;2023-04-16T12:40:18;28.98;;;24.48;;
23236;SDS011;11787;52.018;8.570;2023-04-16T12:42:43;27.42;;;23.13;;
23236;SDS011;11787;52.018;8.570;2023-04-16T12:45:09;28.75;;;23.80;;
23236;SDS011;11787;52.018;8.570;2023-04-16T12:47:35;27.45;;;23.02;;
23236;SDS011;11787;52.018;8.570;2023-04-16T12:50:00;30.30;;;23.73;;
23236;SDS011;11787;52.018;8.570;2023-04-16T12:52:26;26.63;;;23.58;;
23236;SDS011;11787;52.018;8.570;2023-04-16T12:54:51;29.83;;;22.75;;
23236;SDS011;11787;52.018;8.570;2023-04-16T12:57:17;27.10;;;22.40;;
23236;SDS011;11787;52.018;8.570;2023-04-16T12:59:43;28.10;;;22.75;;
23236;SDS011;11787;52.018;8.570;2023-04-16T13:02:10;28.13;;;24.48;;
23236;SDS011;11787;52.018;8.570;2023-04-16T13:04:36;26.27;;;22.13;;
23236;SDS011;11787;52.018;8.570;2023-04-16T13:07:02;25.63;;;22.88;;
23236;SDS011;11787;52.018;8.570;2023-04-16T13:09:27;26.38;;;22.55;;
23236;SDS011;11787;52.018;8.570;2023-04-16T13:11:53;27.20;;;22.15;;
23236;SDS011;11787;52.018;8.570;2023-04-16T13:14:19;28.80;;;23.05;;
23236;SDS011;11787;52.018;8.570;2023-04-16T13:16:45;29.60;;;23.80;;
23236;SDS011;11787;52.018;8.570;2023-04-16T13:19:10;27.92;;;23.60;;
23236;SDS011;11787;52.018;8.570;2023-04-16T13:21:36;27.70;;;22.65;;
23236;SDS011;11787;52.018;8.570;2023-04-16T13:24:02;26.73;;;22.63;;
23236;SDS011;11787;52.018;8.570;2023-04-16T13:26:27;26.70;;;22.92;;
23236;SDS011;11787;52.018;8.570;2023-04-16T13:28:53;25.50;;;21.80;;
23236;SDS011;11787;52.018;8.570;2023-04-16T13:31:19;29.30;;;25.90;;
23236;SDS011;11787;52.018;8.570;2023-04-16T13:33:46;24.30;;;21.40;;
23236;SDS011;11787;52.018;8.570;2023-04-16T13:36:11;26.42;;;21.75;;
23236;SDS011;11787;52.018;8.570;2023-04-16T13:38:37;27.52;;;23.25;;
23236;SDS011;11787;52.018;8.570;2023-04-16T13:41:03;29.85;;;22.50;;
23236;SDS011;11787;52.018;8.570;2023-04-16T13:43:30;29.08;;;22.92;;
23236;SDS011;11787;52.018;8.570;2023-04-16T13:45:56;28.35;;;22.65;;
23236;SDS011;11787;52.018;8.570;2023-04-16T13:48:21;26.50;;;22.23;;
23236;SDS011;11787;52.018;8.570;2023-04-16T13:50:47;28.15;;;23.75;;
23236;SDS011;11787;52.018;8.570;2023-04-16T13:53:12;25.00;;;21.95;;
23236;SDS011;11787;52.018;8.570;2023-04-16T14:13:43;26.90;;;22.38;;
23236;SDS011;11787;52.018;8.570;2023-04-16T14:16:09;26.42;;;22.17;;
23236;SDS011;11787;52.018;8.570;2023-04-16T14:18:34;25.63;;;20.65;;
23236;SDS011;11787;52.018;8.570;2023-04-16T14:21:04;23.67;;;20.65;;
23236;SDS011;11787;52.018;8.570;2023-04-16T14:23:30;22.60;;;20.20;;
23236;SDS011;11787;52.018;8.570;2023-04-16T14:25:56;23.60;;;19.88;;
23236;SDS011;11787;52.018;8.570;2023-04-16T14:28:21;24.70;;;20.40;;
23236;SDS011;11787;52.018;8.570;2023-04-16T14:30:47;23.98;;;20.50;;
23236;SDS011;11787;52.018;8.570;2023-04-16T14:33:12;22.70;;;20.27;;
23236;SDS011;11787;52.018;8.570;2023-04-16T14:35:38;23.08;;;20.63;;
23236;SDS011;11787;52.018;8.570;2023-04-16T14:38:03;22.40;;;20.00;;
23236;SDS011;11787;52.018;8.570;2023-04-16T14:40:29;21.90;;;18.20;;
23236;SDS011;11787;52.018;8.570;2023-04-16T14:42:55;22.02;;;19.73;;
23236;SDS011;11787;52.018;8.570;2023-04-16T14:45:21;29.85;;;20.13;;
23236;SDS011;11787;52.018;8.570;2023-04-16T14:47:49;22.75;;;19.58;;
23236;SDS011;11787;52.018;8.570;2023-04-16T14:50:15;21.25;;;19.05;;